Aviation Digital Data Service (ADDS)

Output produced by METARs form (2137 UTC 06 December 2019)
found at http://www.aviationweather.gov/metar/data/
 
Forecast for: RJGG (NAGOYA/CHUBU , JP)
Text: TAF RJGG 061706Z 0618/0800 34012KT 9999 FEW020
Forecast period: 1800 UTC 06 December 2019 to 0000 UTC 08 December 2019
Forecast type: FROM: standard forecast or significant change
Winds: from the NNW (340 degrees) at 14 MPH (12 knots; 6.2 m/s)
Visibility: 6 or more miles 10+ km)
Ceiling: at least 12,000 feet AGL
Clouds: few clouds at 2000 feet AGL
Weather: no significant weather forecast for this period